Time;durP1;ratioP1;P1;durP2;ratioP2;P2;SDS_P1;SDS_P2;PMS_P1;PMS_P2;Temp;Humidity;BMP_temperature;BMP_pressure;BME280_temperature;BME280_humidity;BME280_pressure;Samples;Min_cycle;Max_cycle;Signal;HPM_P1;HPM_P2
2021/08/10 00:01:27;;;;;;;10.20;3.60;;;17.20;99.90;;;16.70;100.00;101380.47;4103967;28;20034;-74
2021/08/10 00:03:28;;;;;;;10.60;3.85;;;17.20;99.90;;;16.57;100.00;101364.28;4119832;28;20030;-74
2021/08/10 00:05:29;;;;;;;7.18;3.63;;;17.10;99.90;;;16.63;100.00;101373.41;4103867;28;20035;-74
2021/08/10 00:07:30;;;;;;;10.20;3.83;;;17.10;99.90;;;16.57;100.00;101373.09;4119860;28;20035;-74
2021/08/10 00:09:31;;;;;;;12.43;4.07;;;17.10;99.90;;;16.53;100.00;101373.59;4121002;28;20458;-74
2021/08/10 00:11:32;;;;;;;6.85;3.45;;;17.00;99.90;;;16.52;100.00;101372.78;4118286;28;20068;-74
2021/08/10 00:13:33;;;;;;;10.93;4.47;;;17.00;99.90;;;16.57;100.00;101366.94;4120819;28;20058;-74
2021/08/10 00:15:34;;;;;;;9.50;3.70;;;17.00;99.90;;;16.54;100.00;101368.16;4120960;28;20158;-74
2021/08/10 00:17:35;;;;;;;8.30;3.10;;;17.00;99.90;;;16.47;100.00;101364.50;4119640;28;20117;-75
2021/08/10 00:19:36;;;;;;;9.18;3.92;;;16.90;99.90;;;16.43;100.00;101368.50;4119723;28;20474;-75
2021/08/10 00:21:37;;;;;;;10.73;3.60;;;17.00;99.90;;;16.50;100.00;101371.28;4120951;28;20085;-74
2021/08/10 00:23:38;;;;;;;7.22;3.50;;;16.90;99.90;;;16.50;100.00;101382.78;4120853;28;20039;-74
2021/08/10 00:25:39;;;;;;;7.22;3.58;;;16.90;99.90;;;16.50;100.00;101376.63;4119369;28;20077;-74
2021/08/10 00:27:40;;;;;;;7.18;3.80;;;16.90;99.90;;;16.56;100.00;101363.47;4119585;28;20035;-74
2021/08/10 00:29:42;;;;;;;8.05;3.60;;;16.90;99.90;;;16.56;100.00;101367.94;4120569;28;20066;-74
2021/08/10 00:31:43;;;;;;;5.53;3.30;;;16.90;99.90;;;16.48;100.00;101365.31;4119566;28;20026;-74
2021/08/10 00:33:44;;;;;;;8.50;4.25;;;17.00;99.90;;;16.48;100.00;101374.16;4120724;28;20062;-74
2021/08/10 00:35:44;;;;;;;9.13;3.80;;;16.90;99.90;;;16.48;100.00;101371.50;4120598;28;20022;-74
2021/08/10 00:37:46;;;;;;;10.43;4.15;;;16.90;99.90;;;16.48;100.00;101376.81;4119355;28;20035;-74
2021/08/10 00:39:46;;;;;;;8.02;3.40;;;16.90;99.90;;;16.40;100.00;101368.88;4120595;28;20026;-74
2021/08/10 00:41:48;;;;;;;5.95;3.40;;;16.90;99.90;;;16.41;100.00;101364.38;4118946;28;20118;-74
2021/08/10 00:43:49;;;;;;;8.27;3.95;;;16.80;99.90;;;16.44;100.00;101362.19;4135331;28;20027;-74
2021/08/10 00:45:50;;;;;;;9.80;3.88;;;16.80;99.90;;;16.47;100.00;101358.34;4135351;28;20106;-74
2021/08/10 00:47:51;;;;;;;8.40;3.55;;;16.80;99.90;;;16.48;100.00;101362.66;4119326;28;20475;-75
2021/08/10 00:49:51;;;;;;;9.27;4.03;;;16.80;99.90;;;16.47;100.00;101367.16;4135416;28;20023;-74
2021/08/10 00:51:53;;;;;;;8.75;4.18;;;16.80;99.90;;;16.42;100.00;101360.72;4120619;28;20027;-75
2021/08/10 00:53:54;;;;;;;11.25;3.67;;;16.80;99.90;;;16.30;100.00;101352.31;4103114;28;20031;-74
2021/08/10 00:55:55;;;;;;;10.30;3.70;;;16.70;99.90;;;16.30;100.00;101352.31;4118831;28;20026;-74
2021/08/10 00:57:56;;;;;;;7.70;3.72;;;16.70;99.90;;;16.41;100.00;101372.38;4135274;28;20030;-74
2021/08/10 00:59:58;;;;;;;6.38;3.55;;;16.70;99.90;;;16.31;100.00;101367.28;4119116;28;20030;-75
2021/08/10 01:02:00;;;;;;;6.72;3.42;;;16.60;99.90;;;16.26;100.00;101363.50;4119225;28;20478;-74
2021/08/10 01:04:01;;;;;;;7.13;3.53;;;16.60;99.90;;;16.22;100.00;101365.69;4119063;28;20050;-74
2021/08/10 01:06:11;;;;;;;7.97;3.75;;;16.50;99.90;;;16.13;100.00;101356.09;4119106;28;20093;-74
2021/08/10 01:08:48;;;;;;;9.38;3.70;;;16.50;99.90;;;16.19;100.00;101374.03;4135495;28;20030;-75
2021/08/10 01:11:26;;;;;;;6.90;3.58;;;16.50;99.90;;;16.11;100.00;101362.59;4134751;28;20062;-74
2021/08/10 01:13:47;;;;;;;8.75;4.28;;;16.50;99.90;;;16.18;100.00;101368.88;4131160;28;20038;-74
2021/08/10 01:16:17;;;;;;;10.45;4.63;;;16.40;99.90;;;16.16;100.00;101371.72;4119077;28;20037;-74
2021/08/10 01:18:34;;;;;;;6.90;3.13;;;16.40;99.90;;;16.07;100.00;101356.78;4119982;28;20046;-75
2021/08/10 01:21:20;;;;;;;10.55;4.95;;;16.40;99.90;;;16.07;100.00;101366.63;4118985;28;20471;-74
2021/08/10 01:23:26;;;;;;;10.82;4.07;;;16.40;99.90;;;16.05;100.00;101366.81;4134473;28;20050;-74
2021/08/10 01:25:36;;;;;;;7.93;3.58;;;16.40;99.90;;;16.08;100.00;101369.13;4134331;28;20058;-74
2021/08/10 01:27:57;;;;;;;8.23;3.88;;;16.30;99.90;;;16.04;100.00;101362.47;4119917;28;20086;-75
2021/08/10 01:30:08;;;;;;;6.47;3.97;;;16.30;99.90;;;16.02;100.00;101367.16;4134624;28;20031;-74
2021/08/10 01:32:09;;;;;;;8.65;3.67;;;16.30;99.90;;;15.98;100.00;101360.50;4134551;28;20422;-75
2021/08/10 01:34:21;;;;;;;9.82;4.60;;;16.20;99.90;;;16.02;100.00;101364.50;4151056;28;20037;-74
2021/08/10 01:36:22;;;;;;;11.38;4.05;;;16.20;99.90;;;15.85;100.00;101341.66;4119935;28;20124;-75
2021/08/10 01:38:28;;;;;;;10.93;3.95;;;16.20;99.90;;;15.90;100.00;101341.94;4119954;28;20039;-74
2021/08/10 01:40:31;;;;;;;10.85;3.95;;;16.20;99.90;;;15.87;100.00;101342.31;4118116;28;20035;-74
2021/08/10 01:42:34;;;;;;;8.63;4.40;;;16.20;99.90;;;15.84;100.00;101340.00;4134516;28;20030;-75
2021/08/10 01:44:36;;;;;;;10.90;4.25;;;16.10;99.90;;;15.85;100.00;101341.66;4118508;28;20034;-74
2021/08/10 01:46:39;;;;;;;10.13;4.30;;;16.10;99.90;;;15.85;100.00;101347.81;4118597;28;20041;-74
2021/08/10 01:48:41;;;;;;;9.15;4.50;;;16.10;99.90;;;15.78;100.00;101351.34;4118536;28;20031;-74
2021/08/10 01:50:45;;;;;;;11.77;4.40;;;16.10;99.90;;;15.70;100.00;101338.09;4118478;28;20038;-74
2021/08/10 01:52:46;;;;;;;;;;;16.00;99.90;;;15.66;100.00;101347.41;4120365;28;20070;-74
2021/08/10 01:54:48;;;;;;;7.63;4.03;;;16.00;99.90;;;15.71;100.00;101335.22;4118563;28;19914;-74
2021/08/10 01:56:49;;;;;;;7.07;3.70;;;16.00;99.90;;;15.70;100.00;101341.59;4118419;28;20027;-74
2021/08/10 01:58:52;;;;;;;8.27;4.00;;;16.00;99.90;;;15.62;100.00;101335.47;4118401;28;20035;-74
2021/08/10 02:00:55;;;;;;;9.95;4.25;;;16.00;99.90;;;15.62;100.00;101348.78;4118443;28;20019;-74
2021/08/10 02:02:59;;;;;;;9.38;4.72;;;16.00;99.90;;;15.60;100.00;101348.09;4118494;28;20023;-74
2021/08/10 02:05:01;;;;;;;11.88;4.03;;;15.90;99.90;;;15.62;100.00;101346.13;4118524;28;20022;-74
2021/08/10 02:07:03;;;;;;;9.50;4.22;;;15.90;99.90;;;15.71;100.00;101339.75;4119616;28;20107;-74
2021/08/10 02:09:05;;;;;;;7.07;3.30;;;15.90;99.90;;;15.76;100.00;101342.72;4118375;28;20015;-74
2021/08/10 02:11:06;;;;;;;7.07;3.90;;;16.00;99.90;;;15.72;100.00;101344.03;4118211;28;20597;-74
2021/08/10 02:13:11;;;;;;;7.78;4.25;;;15.90;99.90;;;15.72;100.00;101350.19;4119528;28;20101;-74
2021/08/10 02:15:12;;;;;;;10.80;4.28;;;16.00;99.90;;;15.66;100.00;101337.59;4102575;28;20498;-74
2021/08/10 02:17:16;;;;;;;7.78;3.67;;;16.00;99.90;;;15.67;100.00;101343.75;4118559;28;20526;-74
2021/08/10 02:19:18;;;;;;;9.45;3.88;;;16.00;99.90;;;15.59;100.00;101343.81;4118350;28;20031;-74
2021/08/10 02:21:49;;;;;;;7.85;3.60;;;15.90;99.90;;;15.58;100.00;101334.16;4102424;28;20035;-74
2021/08/10 02:24:00;;;;;;;8.23;4.20;;;15.90;99.90;;;15.61;100.00;101336.47;4122638;28;20043;-74
2021/08/10 02:26:03;;;;;;;6.03;3.03;;;15.90;99.90;;;15.67;100.00;101349.91;4119218;28;20034;-75
2021/08/10 02:28:06;;;;;;;7.15;4.07;;;15.90;99.90;;;15.77;100.00;101349.69;4118170;28;20066;-74
2021/08/10 02:30:11;;;;;;;10.70;3.95;;;16.00;99.90;;;15.66;100.00;101342.09;4118357;28;20053;-74
2021/08/10 02:32:19;;;;;;;9.50;4.10;;;16.00;99.90;;;15.67;100.00;101347.25;4118267;28;20105;-74
2021/08/10 02:34:21;;;;;;;10.43;4.15;;;16.00;99.90;;;15.72;100.00;101349.38;4118982;28;20154;-74
2021/08/10 02:36:23;;;;;;;8.57;3.72;;;16.10;99.90;;;15.81;100.00;101343.84;4121356;28;20038;-74
2021/08/10 02:38:26;;;;;;;10.45;4.57;;;16.10;99.90;;;15.73;100.00;101343.06;4121494;28;20030;-74
2021/08/10 02:40:29;;;;;;;12.80;4.75;;;16.10;99.90;;;15.79;100.00;101343.19;4120851;28;20058;-74
2021/08/10 02:42:31;;;;;;;8.23;3.80;;;16.10;99.90;;;15.69;100.00;101341.75;4120986;28;20129;-74
2021/08/10 02:44:34;;;;;;;7.85;3.70;;;16.10;99.90;;;15.62;100.00;101341.59;4152819;28;20038;-75
2021/08/10 02:46:36;;;;;;;10.25;4.40;;;16.00;99.90;;;15.72;100.00;101341.38;4121116;28;20090;-75
2021/08/10 02:48:37;;;;;;;8.00;3.80;;;16.00;99.90;;;15.69;100.00;101342.56;4104924;28;20061;-74
2021/08/10 02:50:38;;;;;;;4.35;3.08;;;16.00;99.90;;;15.65;100.00;101340.44;4121019;28;20490;-74
2021/08/10 02:52:38;;;;;;;10.07;4.10;;;16.00;99.90;;;15.60;100.00;101343.63;4122137;28;20026;-74
2021/08/10 02:54:41;;;;;;;9.50;3.70;;;16.00;99.90;;;15.52;100.00;101342.81;4120958;28;20034;-74
2021/08/10 02:57:00;;;;;;;7.50;3.53;;;15.90;99.90;;;15.51;100.00;101334.00;4120720;28;20062;-74
2021/08/10 02:59:19;;;;;;;11.02;5.03;;;15.90;99.90;;;15.48;100.00;101339.69;4120849;28;20035;-75
2021/08/10 03:01:32;;;;;;;13.18;4.40;;;15.90;99.90;;;15.49;100.00;101339.53;4121422;28;20049;-74
2021/08/10 03:03:33;;;;;;;10.63;4.60;;;15.90;99.90;;;15.41;100.00;101341.38;4121320;28;20062;-75
2021/08/10 03:05:35;;;;;;;9.88;5.03;;;15.80;99.90;;;15.37;100.00;101343.53;4121865;28;20118;-75
2021/08/10 03:07:42;;;;;;;8.35;4.95;;;15.80;99.90;;;15.43;100.00;101339.34;4120811;28;20030;-74
2021/08/10 03:09:44;;;;;;;7.28;4.10;;;15.90;99.90;;;15.47;100.00;101343.38;4105069;28;20027;-75
2021/08/10 03:11:45;;;;;;;6.60;3.55;;;15.80;99.90;;;15.49;100.00;101344.00;4136678;28;20023;-74
2021/08/10 03:13:48;;;;;;;11.93;5.13;;;15.80;99.90;;;15.43;100.00;101348.16;4121941;28;20045;-74
2021/08/10 03:15:52;;;;;;;12.10;4.85;;;15.80;99.90;;;15.35;100.00;101345.50;4120827;28;20030;-74
2021/08/10 03:18:02;;;;;;;10.85;5.07;;;15.80;99.90;;;15.33;100.00;101350.19;4104851;28;20035;-74
2021/08/10 03:20:06;;;;;;;6.25;3.50;;;15.70;99.90;;;15.37;100.00;101335.56;4120574;28;20031;-74
2021/08/10 03:22:08;;;;;;;6.72;4.35;;;15.80;99.90;;;15.32;100.00;101332.56;4120759;28;20031;-75
2021/08/10 03:24:10;;;;;;;7.15;3.72;;;15.70;99.90;;;15.38;100.00;101329.22;4153093;28;20084;-74
2021/08/10 03:26:15;;;;;;;6.72;4.32;;;15.70;99.90;;;15.43;100.00;101332.22;4120255;28;20065;-75
2021/08/10 03:28:17;;;;;;;13.48;5.05;;;15.70;99.90;;;15.34;100.00;101322.59;4120409;28;20035;-74
2021/08/10 03:30:19;;;;;;;6.10;4.70;;;15.70;99.90;;;15.33;100.00;101336.88;4120537;28;20027;-74
2021/08/10 03:32:21;;;;;;;8.57;3.90;;;15.70;99.90;;;15.32;100.00;101335.22;4104354;29;20027;-75
2021/08/10 03:34:23;;;;;;;10.95;5.30;;;15.70;99.90;;;15.30;100.00;101336.41;4120283;28;20078;-74
2021/08/10 03:36:26;;;;;;;8.32;4.65;;;15.70;99.90;;;15.28;100.00;101333.94;4120274;28;20022;-74
2021/08/10 03:38:27;;;;;;;6.47;3.22;;;15.70;99.90;;;15.38;100.00;101331.06;4120379;28;20110;-74
2021/08/10 03:40:29;;;;;;;10.98;5.30;;;15.70;99.90;;;15.41;100.00;101328.06;4121035;28;20027;-74
2021/08/10 03:42:30;;;;;;;8.48;4.25;;;15.80;99.90;;;15.47;100.00;101327.41;4136392;28;20040;-74
2021/08/10 03:44:32;;;;;;;5.50;3.88;;;15.80;99.90;;;15.44;100.00;101323.22;4120139;28;20494;-74
2021/08/10 03:46:33;;;;;;;7.95;3.83;;;15.80;99.90;;;15.41;100.00;101326.22;4135956;28;20030;-74
2021/08/10 03:48:42;;;;;;;7.28;4.00;;;15.80;99.90;;;15.42;100.00;101319.06;4121330;28;20074;-75
2021/08/10 03:50:44;;;;;;;6.65;4.40;;;15.80;99.90;;;15.26;100.00;101316.50;4104067;28;20496;-74
2021/08/10 03:52:47;;;;;;;7.18;4.68;;;15.70;99.90;;;15.24;100.00;101315.81;4121413;28;20019;-74
2021/08/10 03:54:48;;;;;;;7.20;3.88;;;15.70;99.90;;;15.21;100.00;101306.38;4119917;28;20399;-74
2021/08/10 03:56:51;;;;;;;5.93;3.40;;;15.60;99.90;;;15.19;100.00;101318.19;4121280;28;20038;-74
2021/08/10 03:58:56;;;;;;;6.63;3.67;;;15.60;99.90;;;15.23;100.00;101322.97;4119966;28;20041;-74
2021/08/10 04:01:00;;;;;;;9.57;4.65;;;15.60;99.90;;;15.11;100.00;101307.59;4103684;29;20070;-74
2021/08/10 04:03:03;;;;;;;5.93;3.80;;;15.60;99.90;;;15.15;100.00;101316.84;4135998;28;20129;-74
2021/08/10 04:05:05;;;;;;;7.93;3.60;;;15.60;99.90;;;15.23;100.00;101315.00;4121099;28;20034;-74
2021/08/10 04:07:08;;;;;;;11.45;4.78;;;15.60;99.90;;;15.05;100.00;101311.75;4120845;28;20027;-74
2021/08/10 04:09:09;;;;;;;5.72;3.58;;;15.60;99.90;;;15.11;100.00;101310.25;4119931;28;20108;-74
2021/08/10 04:11:10;;;;;;;8.27;4.18;;;15.60;99.90;;;15.13;100.00;101316.22;4119777;28;20031;-74
2021/08/10 04:13:12;;;;;;;6.72;4.00;;;15.60;99.90;;;15.33;100.00;101312.97;4120904;28;20042;-74
2021/08/10 04:15:14;;;;;;;11.80;5.28;;;15.60;99.90;;;15.22;100.00;101321.31;4103592;28;20031;-74
2021/08/10 04:17:16;;;;;;;7.53;4.38;;;15.70;99.90;;;15.28;100.00;101322.47;4135851;28;20539;-74
2021/08/10 04:19:21;;;;;;;9.15;4.80;;;15.70;99.90;;;15.28;100.00;101317.16;4119645;28;20069;-74
2021/08/10 04:21:26;;;;;;;9.32;4.80;;;15.70;99.90;;;15.33;100.00;101310.31;4135693;28;20062;-74
2021/08/10 04:23:27;;;;;;;11.75;4.90;;;15.70;99.90;;;15.20;100.00;101318.00;4119444;28;20089;-74
2021/08/10 04:25:28;;;;;;;9.50;4.07;;;15.70;99.90;;;15.12;100.00;101310.06;4119071;28;20050;-74
2021/08/10 04:27:29;;;;;;;6.97;4.38;;;15.70;99.90;;;15.19;100.00;101318.19;4119507;28;20038;-75
2021/08/10 04:29:30;;;;;;;5.45;3.97;;;15.70;99.90;;;15.22;100.00;101325.81;4119558;28;20105;-75
2021/08/10 04:31:31;;;;;;;10.68;5.13;;;15.60;99.90;;;15.24;100.00;101326.44;4135422;28;20034;-74
2021/08/10 04:33:32;;;;;;;8.68;4.57;;;15.70;99.90;;;15.18;100.00;101317.34;4120786;28;20019;-74
2021/08/10 04:35:34;;;;;;;8.95;4.53;;;15.70;99.90;;;15.21;100.00;101309.03;4135535;28;20505;-74
2021/08/10 04:37:35;;;;;;;7.63;3.88;;;15.70;99.90;;;15.32;100.00;101308.63;4135393;28;20049;-75
2021/08/10 04:39:36;;;;;;;8.73;4.40;;;15.80;99.90;;;15.39;100.00;101314.94;4135117;28;20042;-74
2021/08/10 04:41:37;;;;;;;8.50;3.92;;;15.80;99.90;;;15.47;100.00;101317.56;4134949;28;20065;-74
2021/08/10 04:43:38;;;;;;;9.05;4.32;;;15.90;99.90;;;15.43;100.00;101304.78;4119618;28;20458;-74
2021/08/10 04:45:39;;;;;;;10.57;4.85;;;15.90;99.90;;;15.61;100.00;101315.19;4120489;28;20027;-74
2021/08/10 04:47:40;;;;;;;10.95;5.05;;;16.00;99.90;;;15.52;100.00;101306.44;4119050;28;20089;-74
2021/08/10 04:49:41;;;;;;;8.40;4.60;;;16.00;99.90;;;15.56;100.00;101312.25;4151455;28;20058;-74
2021/08/10 04:51:42;;;;;;;10.15;3.85;;;16.00;99.90;;;15.59;100.00;101318.00;4119127;28;20027;-74
2021/08/10 04:53:43;;;;;;;5.53;3.63;;;16.00;99.90;;;15.63;100.00;101318.50;4119115;28;20073;-74
2021/08/10 04:55:44;;;;;;;8.50;4.25;;;16.00;99.90;;;15.63;100.00;101313.19;4133521;28;20121;-74
2021/08/10 04:57:45;;;;;;;9.55;5.05;;;16.10;99.90;;;15.57;100.00;101312.06;4103710;28;20046;-74
2021/08/10 04:59:46;;;;;;;9.07;4.28;;;16.10;99.90;;;15.62;100.00;101314.19;4104215;28;20031;-74
2021/08/10 05:01:47;;;;;;;10.27;3.95;;;16.10;99.90;;;15.68;100.00;101322.28;4104254;28;20034;-74
2021/08/10 05:03:48;;;;;;;8.93;4.40;;;16.10;99.90;;;15.61;100.00;101325.84;4104118;28;20038;-74
2021/08/10 05:05:49;;;;;;;6.82;3.90;;;16.10;99.90;;;15.56;100.00;101314.91;4103120;28;20039;-74
2021/08/10 05:07:50;;;;;;;9.65;4.50;;;16.10;99.90;;;15.62;100.00;101322.19;4118861;28;20465;-74
2021/08/10 05:09:51;;;;;;;8.57;3.55;;;16.10;99.90;;;15.65;100.00;101322.63;4118652;28;20038;-74
2021/08/10 05:11:52;;;;;;;7.68;4.28;;;16.10;99.90;;;15.65;100.00;101327.16;4103923;28;20031;-74
2021/08/10 05:13:53;;;;;;;7.35;3.58;;;16.20;99.90;;;15.65;100.00;101319.16;4103073;28;20107;-74
2021/08/10 05:15:54;;;;;;;7.50;4.53;;;16.20;99.90;;;15.72;100.00;101320.94;4104105;28;20104;-74
2021/08/10 05:17:55;;;;;;;10.60;5.00;;;16.20;99.90;;;15.80;100.00;101333.38;4086880;29;20075;-74
2021/08/10 05:19:56;;;;;;;5.53;3.63;;;16.20;99.90;;;15.81;100.00;101330.53;4103806;28;20106;-74
2021/08/10 05:21:57;;;;;;;11.18;3.65;;;16.30;99.90;;;15.76;100.00;101324.91;4102877;28;20031;-74
2021/08/10 05:23:57;;;;;;;5.70;3.35;;;16.30;99.90;;;15.82;100.00;101326.03;4121810;28;20398;-74
2021/08/10 05:25:58;;;;;;;11.18;3.70;;;16.30;99.90;;;15.91;100.00;101330.31;4118463;28;20578;-74
2021/08/10 05:27:59;;;;;;;8.65;4.15;;;16.40;99.90;;;15.94;100.00;101329.97;4119742;28;20035;-74
2021/08/10 05:30:00;;;;;;;9.70;4.43;;;16.40;99.90;;;15.91;100.00;101314.34;4118523;28;20034;-74
2021/08/10 05:32:01;;;;;;;8.95;3.60;;;16.40;99.90;;;15.98;100.00;101325.91;4134616;28;20073;-74
2021/08/10 05:34:02;;;;;;;8.75;4.13;;;16.40;99.90;;;15.99;100.00;101324.94;4118710;28;20479;-74
2021/08/10 05:36:03;;;;;;;7.55;3.63;;;16.50;99.90;;;16.07;100.00;101327.53;4119866;28;20023;-74
2021/08/10 05:38:05;;;;;;;10.45;3.50;;;16.50;99.90;;;16.08;100.00;101320.38;4118379;28;20057;-74
2021/08/10 05:40:07;;;;;;;7.18;3.75;;;16.60;99.90;;;16.17;100.00;101329.94;4134342;28;20049;-74
2021/08/10 05:42:08;;;;;;;8.15;4.18;;;16.70;99.90;;;16.23;100.00;101318.59;4134447;28;20038;-74
2021/08/10 05:44:09;;;;;;;8.63;3.47;;;16.70;99.90;;;16.36;100.00;101330.31;4119536;28;20034;-74
2021/08/10 05:46:10;;;;;;;7.75;3.47;;;16.80;99.90;;;16.36;100.00;101330.31;4150511;28;20025;-74
2021/08/10 05:48:12;;;;;;;7.88;3.00;;;16.90;99.90;;;16.39;100.00;101329.13;4134508;28;20521;-74
2021/08/10 05:50:12;;;;;;;9.18;3.20;;;17.00;99.90;;;16.52;100.00;101324.00;4102322;28;20019;-74
2021/08/10 05:52:14;;;;;;;11.80;3.95;;;17.00;99.90;;;16.53;100.00;101331.81;4118396;28;20027;-74
2021/08/10 05:54:16;;;;;;;8.75;3.33;;;17.10;99.90;;;16.55;100.00;101337.81;4119407;28;20027;-74
2021/08/10 05:56:16;;;;;;;11.85;3.47;;;17.10;99.90;;;16.45;100.00;101323.06;4118393;28;20022;-74
2021/08/10 05:58:18;;;;;;;6.68;3.72;;;17.10;99.90;;;16.54;100.00;101328.19;4118425;28;20023;-74
2021/08/10 06:00:19;;;;;;;8.30;3.42;;;17.10;99.90;;;16.69;100.00;101346.03;4119437;28;20031;-74
2021/08/10 06:02:20;;;;;;;5.13;2.60;;;17.20;99.90;;;16.67;100.00;101337.38;4118235;28;20465;-74
2021/08/10 06:04:21;;;;;;;5.57;2.70;;;17.30;99.90;;;16.76;100.00;101337.13;4134334;28;20034;-74
2021/08/10 06:06:21;;;;;;;10.45;4.22;;;17.30;99.90;;;16.78;100.00;101331.63;4134393;28;20048;-74
2021/08/10 06:08:22;;;;;;;8.73;3.75;;;17.40;99.90;;;16.83;100.00;101335.38;4135424;28;20033;-74
2021/08/10 06:10:23;;;;;;;12.10;3.47;;;17.40;99.90;;;16.85;100.00;101330.69;4121121;28;20019;-74
2021/08/10 06:12:24;;;;;;;9.95;3.53;;;17.50;99.90;;;16.93;100.00;101343.13;4121472;28;20023;-74
2021/08/10 06:14:25;;;;;;;8.55;3.10;;;17.60;99.90;;;16.94;100.00;101340.25;4122700;28;20482;-74
2021/08/10 06:16:26;;;;;;;6.90;2.90;;;17.60;99.90;;;16.98;100.00;101348.72;4122887;28;20490;-74
2021/08/10 06:18:27;;;;;;;7.50;2.90;;;17.60;99.90;;;17.07;100.00;101340.47;4122499;28;20026;-74
2021/08/10 06:20:28;;;;;;;10.25;2.90;;;17.70;99.90;;;17.15;100.00;101345.69;4121460;28;20433;-74
2021/08/10 06:22:29;;;;;;;8.45;3.03;;;17.70;99.90;;;17.17;100.00;101359.66;4137712;28;20037;-75
2021/08/10 06:24:31;;;;;;;8.05;3.35;;;17.70;99.90;;;17.08;100.00;101351.97;4121243;28;20038;-74
2021/08/10 06:26:32;;;;;;;9.10;3.00;;;17.70;99.90;;;17.05;100.00;101347.00;4136794;28;20038;-74
2021/08/10 06:28:32;;;;;;;10.18;3.28;;;17.70;99.90;;;17.15;100.00;101352.88;4121248;28;20031;-74
2021/08/10 06:30:33;;;;;;;11.05;3.28;;;17.80;99.90;;;17.09;100.00;101350.94;4121328;28;20027;-74
2021/08/10 06:32:35;;;;;;;10.10;3.13;;;17.80;99.90;;;17.06;100.00;101348.63;4122439;28;20023;-74
2021/08/10 06:34:35;;;;;;;8.38;2.70;;;17.80;99.90;;;17.18;100.00;101357.81;4121080;28;20034;-74
2021/08/10 06:36:39;;;;;;;5.93;3.35;;;17.80;99.90;;;17.29;100.00;101352.06;4122454;28;20034;-74
2021/08/10 06:38:40;;;;;;;8.75;3.33;;;17.90;99.90;;;17.29;100.00;101360.06;4121305;28;20054;-74
2021/08/10 06:40:41;;;;;;;8.57;3.00;;;17.90;99.90;;;17.38;100.00;101355.44;4120493;28;20453;-74
2021/08/10 06:42:42;;;;;;;8.38;3.05;;;18.00;99.90;;;17.37;100.00;101357.28;4137239;28;20070;-75
2021/08/10 06:44:43;;;;;;;5.88;2.67;;;18.00;99.90;;;17.38;100.00;101350.91;4121167;28;20031;-75
2021/08/10 06:46:44;;;;;;;12.00;3.53;;;18.10;99.90;;;17.56;100.00;101350.59;4120839;28;20030;-75
2021/08/10 06:48:44;;;;;;;11.82;3.40;;;18.10;99.90;;;17.49;100.00;101349.63;4122197;28;20026;-74
2021/08/10 06:50:45;;;;;;;8.43;2.63;;;18.20;99.90;;;17.51;100.00;101358.25;4120796;28;20430;-75
2021/08/10 06:52:47;;;;;;;10.52;3.00;;;18.20;99.90;;;17.49;100.00;101366.47;4136918;28;20077;-74
2021/08/10 06:54:48;;;;;;;8.70;3.70;;;18.20;99.90;;;17.51;100.00;101358.25;4136670;28;20070;-75
2021/08/10 06:56:49;;;;;;;10.60;3.53;;;18.20;99.90;;;17.54;100.00;101361.44;4137048;28;20109;-74
2021/08/10 06:58:50;;;;;;;6.90;2.97;;;18.20;99.90;;;17.53;100.00;101377.59;4136984;28;20030;-74
2021/08/10 07:00:51;;;;;;;9.88;3.22;;;18.20;99.90;;;17.51;100.00;101368.94;4104733;28;20031;-74
2021/08/10 07:02:52;;;;;;;9.98;3.40;;;18.20;99.90;;;17.49;100.00;101371.81;4136727;28;20031;-74
2021/08/10 07:04:53;;;;;;;6.95;2.53;;;18.20;99.90;;;17.50;100.00;101368.09;4121976;28;20034;-74
2021/08/10 07:06:54;;;;;;;10.73;3.20;;;18.20;99.90;;;17.48;100.00;101362.13;4120805;28;20031;-74
2021/08/10 07:08:58;;;;;;;10.90;3.72;;;18.20;99.90;;;17.59;100.00;101376.88;4121711;28;20109;-74
2021/08/10 07:10:58;;;;;;;;;;;18.20;99.90;;;17.53;100.00;101369.59;4120870;28;20035;-74
2021/08/10 07:12:59;;;;;;;11.15;2.80;;;18.20;99.90;;;17.43;100.00;101369.88;4120698;28;19917;-74
2021/08/10 07:15:00;;;;;;;11.15;3.45;;;18.20;99.90;;;17.45;100.00;101378.50;4136946;28;20034;-74
2021/08/10 07:17:01;;;;;;;8.40;3.25;;;18.20;99.90;;;17.42;100.00;101376.22;4120479;28;20062;-74
2021/08/10 07:19:02;;;;;;;5.70;2.83;;;18.20;99.90;;;17.46;100.00;101366.00;4136641;28;20026;-74
2021/08/10 07:21:03;;;;;;;8.90;3.60;;;18.20;99.90;;;17.57;100.00;101382.41;4136027;28;20105;-74
2021/08/10 07:23:04;;;;;;;8.05;3.33;;;18.20;99.90;;;17.55;100.00;101373.75;4121604;28;20023;-74
2021/08/10 07:25:05;;;;;;;8.25;2.78;;;18.20;99.90;;;17.54;100.00;101373.91;4121116;28;20027;-74
2021/08/10 07:27:06;;;;;;;7.40;2.95;;;18.30;99.90;;;17.62;100.00;101377.31;4120267;28;20058;-74
2021/08/10 07:29:07;;;;;;;4.07;2.30;;;18.30;99.90;;;17.64;100.00;101380.66;4136516;28;20089;-74
2021/08/10 07:31:08;;;;;;;6.00;2.90;;;18.30;99.90;;;17.68;100.00;101381.91;4104386;28;20431;-74
2021/08/10 07:33:09;;;;;;;6.55;2.97;;;18.30;99.90;;;17.76;100.00;101372.16;4152666;28;20034;-74
2021/08/10 07:35:10;;;;;;;6.90;3.28;;;18.40;99.90;;;17.66;100.00;101369.78;4136476;28;20033;-74
2021/08/10 07:37:11;;;;;;;12.25;3.10;;;18.50;99.90;;;17.78;100.00;101365.63;4120450;28;20042;-75
2021/08/10 07:39:12;;;;;;;8.15;2.75;;;18.60;99.90;;;17.88;100.00;101376.81;4121478;28;20027;-74
2021/08/10 07:41:13;;;;;;;5.68;2.30;;;18.70;99.90;;;17.95;100.00;101382.25;4119678;28;20075;-74
2021/08/10 07:43:14;;;;;;;6.90;3.13;;;18.70;99.90;;;17.92;100.00;101377.28;4136436;28;20125;-74
2021/08/10 07:45:15;;;;;;;5.05;2.10;;;18.80;99.90;;;17.97;100.00;101374.88;4120302;28;20486;-74
2021/08/10 07:47:16;;;;;;;9.57;2.38;;;18.80;99.90;;;18.05;100.00;101380.91;4136247;28;20030;-74
2021/08/10 07:49:17;;;;;;;8.02;2.80;;;18.80;99.90;;;18.05;100.00;101385.41;4120058;28;20027;-74
2021/08/10 07:51:18;;;;;;;3.58;2.35;;;18.90;99.90;;;18.10;100.00;101391.84;4121439;28;20029;-74
2021/08/10 07:53:20;;;;;;;4.93;2.10;;;18.90;99.90;;;18.04;100.00;101381.13;4152551;28;20034;-74
2021/08/10 07:55:21;;;;;;;5.25;1.73;;;18.90;99.90;;;17.98;100.00;101392.56;4120933;28;20050;-74
2021/08/10 07:57:22;;;;;;;5.30;2.47;;;18.80;99.90;;;17.99;100.00;101394.19;4119868;28;20035;-74
2021/08/10 07:59:23;;;;;;;5.85;2.42;;;18.80;99.90;;;17.92;100.00;101385.28;4121319;28;20034;-74
2021/08/10 08:01:23;;;;;;;5.85;2.60;;;18.80;99.90;;;17.96;100.00;101400.72;4121263;28;20085;-74
2021/08/10 08:03:24;;;;;;;7.22;2.92;;;18.80;99.90;;;17.97;100.00;101398.91;4121136;28;20471;-74
2021/08/10 08:05:25;;;;;;;5.95;2.70;;;18.80;99.90;;;17.98;100.00;101405.91;4103763;28;20435;-74
2021/08/10 08:07:26;;;;;;;6.78;2.58;;;18.80;99.90;;;17.90;100.00;101389.97;4120135;28;20027;-74
2021/08/10 08:09:28;;;;;;;7.63;2.63;;;18.70;99.90;;;17.89;100.00;101399.00;4136128;28;20041;-74
2021/08/10 08:11:29;;;;;;;4.05;2.78;;;18.70;99.90;;;18.00;100.00;101404.69;4120914;28;20545;-74
2021/08/10 08:13:30;;;;;;;5.28;2.75;;;18.80;99.90;;;18.12;100.00;101403.19;4121126;28;20126;-74
2021/08/10 08:15:33;;;;;;;8.45;3.00;;;18.90;99.90;;;18.27;100.00;101413.81;4119833;28;20109;-74
2021/08/10 08:17:34;;;;;;;9.23;2.70;;;18.90;99.90;;;18.25;100.00;101405.13;4119795;28;20558;-75
2021/08/10 08:19:35;;;;;;;6.20;2.85;;;19.00;99.90;;;18.32;100.00;101405.22;4119810;28;20037;-74
2021/08/10 08:21:35;;;;;;;5.43;2.65;;;19.10;99.90;;;18.32;100.00;101400.72;4119564;28;20023;-74
2021/08/10 08:23:38;;;;;;;5.65;2.35;;;19.00;99.90;;;18.39;100.00;101398.94;4135513;28;20062;-74
2021/08/10 08:25:39;;;;;;;6.95;2.45;;;19.10;99.90;;;18.37;100.00;101397.47;4120645;28;20486;-74